Time;durP1;ratioP1;P1;durP2;ratioP2;P2;SDS_P1;SDS_P2;PMS_P1;PMS_P2;Temp;Humidity;BMP_temperature;BMP_pressure;BME280_temperature;BME280_humidity;BME280_pressure;Samples;Min_cycle;Max_cycle;Signal;HPM_P1;HPM_P2
2022/09/11 00:01:28;;;;;;;6.10;1.10;;;18.70;99.90;;;;;;5072869;28;20070;-77
2022/09/11 00:03:55;;;;;;;2.50;0.80;;;18.70;99.90;;;;;;5072683;28;20363;-77
2022/09/11 00:06:21;;;;;;;2.67;0.95;;;18.60;99.90;;;;;;5072754;28;20028;-77
2022/09/11 00:08:49;;;;;;;3.20;0.90;;;18.60;99.90;;;;;;5072782;28;20477;-78
2022/09/11 00:11:18;;;;;;;4.28;0.80;;;18.60;99.90;;;;;;5072173;28;20030;-77
2022/09/11 00:13:46;;;;;;;6.20;1.13;;;18.60;99.90;;;;;;5072398;28;20561;-85
2022/09/11 00:16:27;;;;;;;4.50;1.30;;;18.60;99.90;;;;;;5072531;28;20036;-80
2022/09/11 00:18:56;;;;;;;8.23;1.25;;;18.60;99.90;;;;;;5070750;28;20020;-77
2022/09/11 00:21:21;;;;;;;3.97;1.15;;;18.50;99.90;;;;;;5072472;28;20027;-85
2022/09/11 00:23:48;;;;;;;3.13;0.80;;;18.50;99.90;;;;;;5072519;28;20131;-77
2022/09/11 00:26:15;;;;;;;4.47;1.27;;;18.40;99.90;;;;;;5072227;28;20058;-78
2022/09/11 00:28:41;;;;;;;6.85;1.00;;;18.40;99.90;;;;;;5072465;28;20675;-77
2022/09/11 00:31:11;;;;;;;5.15;1.25;;;18.40;99.90;;;;;;5072168;28;20048;-77
2022/09/11 00:33:37;;;;;;;7.95;1.60;;;18.40;99.90;;;;;;5071985;28;20033;-77
2022/09/11 00:36:06;;;;;;;4.95;1.67;;;18.40;99.90;;;;;;5072024;28;20017;-77
2022/09/11 00:38:34;;;;;;;5.05;1.27;;;18.40;99.90;;;;;;5072117;28;20111;-77
2022/09/11 00:41:02;;;;;;;4.20;1.30;;;18.40;99.90;;;;;;5069358;28;20025;-78
2022/09/11 00:43:29;;;;;;;8.02;1.70;;;18.40;99.90;;;;;;5072144;28;20021;-77
2022/09/11 00:46:02;;;;;;;5.40;1.50;;;18.40;99.90;;;;;;5071801;28;20028;-78
2022/09/11 00:48:33;;;;;;;5.63;1.33;;;18.40;99.90;;;;;;5072163;28;20040;-77
2022/09/11 00:51:02;;;;;;;3.20;1.13;;;18.30;99.90;;;;;;5071956;28;20020;-77
2022/09/11 00:53:32;;;;;;;6.25;1.42;;;18.40;99.90;;;;;;5071725;28;20436;-77
2022/09/11 00:56:01;;;;;;;5.63;1.30;;;18.40;99.90;;;;;;5071272;28;20016;-77
2022/09/11 00:58:31;;;;;;;5.97;1.05;;;18.40;99.90;;;;;;5071541;28;20042;-78
2022/09/11 01:00:56;;;;;;;3.92;1.15;;;18.40;99.90;;;;;;5071717;28;20459;-79
2022/09/11 01:03:25;;;;;;;3.28;1.20;;;18.40;99.90;;;;;;5071706;28;20101;-77
2022/09/11 01:05:52;;;;;;;5.65;1.45;;;18.40;99.90;;;;;;5071720;28;20028;-77
2022/09/11 01:08:17;;;;;;;6.47;1.35;;;18.40;99.90;;;;;;5071429;28;20032;-78
2022/09/11 01:11:22;;;;;;;4.25;1.20;;;18.40;99.90;;;;;;5071701;28;20511;-77
2022/09/11 01:14:44;;;;;;;3.78;1.23;;;18.40;99.90;;;;;;5032787;28;20041;-78
2022/09/11 01:17:27;;;;;;;6.05;1.42;;;18.40;99.90;;;;;;5047756;28;20036;-77
2022/09/11 01:20:11;;;;;;;7.17;1.63;;;18.40;99.90;;;;;;5069773;28;20507;-77
2022/09/11 01:23:14;;;;;;;5.63;1.52;;;18.40;99.90;;;;;;5066496;28;20503;-77
2022/09/11 01:26:03;;;;;;;3.47;1.08;;;18.40;99.90;;;;;;5071185;28;20047;-78
2022/09/11 01:28:49;;;;;;;4.45;1.25;;;18.40;99.90;;;;;;5067145;28;20051;-77
2022/09/11 01:31:20;;;;;;;3.92;1.10;;;18.40;99.90;;;;;;5070556;28;20079;-78
2022/09/11 01:34:01;;;;;;;6.30;1.40;;;18.40;99.90;;;;;;5070748;28;20041;-80
2022/09/11 01:36:33;;;;;;;4.70;1.65;;;18.40;99.90;;;;;;5064903;28;20063;-77
2022/09/11 01:39:01;;;;;;;5.05;1.40;;;18.40;99.90;;;;;;5070750;28;20123;-77
2022/09/11 01:41:47;;;;;;;5.07;1.13;;;18.40;99.90;;;;;;5070892;28;20024;-78
2022/09/11 01:44:21;;;;;;;4.50;1.33;;;18.40;99.90;;;;;;5070986;28;20028;-81
2022/09/11 01:46:50;;;;;;;5.07;1.83;;;18.30;99.90;;;;;;5070866;28;20039;-80
2022/09/11 01:49:24;;;;;;;4.75;1.65;;;18.30;99.90;;;;;;5070697;28;20087;-78
2022/09/11 01:51:55;;;;;;;4.07;1.17;;;18.30;99.90;;;;;;5070689;28;20064;-77
2022/09/11 01:54:24;;;;;;;4.40;1.65;;;18.20;99.90;;;;;;5070564;28;20453;-77
2022/09/11 01:57:01;;;;;;;5.63;1.80;;;18.20;99.90;;;;;;5070318;28;20016;-81
2022/09/11 01:59:34;;;;;;;8.02;2.08;;;18.20;99.90;;;;;;5064482;28;20063;-81
2022/09/11 02:02:05;;;;;;;3.90;1.45;;;18.20;99.90;;;;;;5065022;28;20052;-77
2022/09/11 02:04:44;;;;;;;5.88;1.75;;;18.20;99.90;;;;;;5070575;28;20505;-77
2022/09/11 02:07:14;;;;;;;5.07;1.70;;;18.20;99.90;;;;;;5067070;28;20017;-80
2022/09/11 02:09:49;;;;;;;4.30;2.10;;;18.10;99.90;;;;;;5070459;28;20546;-77
2022/09/11 02:12:19;;;;;;;8.63;1.55;;;18.20;99.90;;;;;;5069949;28;20031;-77
2022/09/11 02:14:49;;;;;;;5.90;2.33;;;18.20;99.90;;;;;;5070416;28;20054;-77
2022/09/11 02:17:23;;;;;;;5.80;2.25;;;18.10;99.90;;;;;;5068450;28;20386;-84
2022/09/11 02:19:50;;;;;;;5.85;1.85;;;18.10;99.90;;;;;;5069873;28;20024;-77
2022/09/11 02:22:16;;;;;;;1.95;1.45;;;18.10;99.90;;;;;;5070293;28;20020;-77
2022/09/11 02:24:42;;;;;;;5.05;2.00;;;18.20;99.90;;;;;;5070116;28;20020;-78
2022/09/11 02:27:22;;;;;;;4.07;1.38;;;18.10;99.90;;;;;;5069978;28;20027;-77
2022/09/11 02:29:48;;;;;;;3.05;1.52;;;18.10;99.90;;;;;;5063668;28;20021;-77
2022/09/11 02:32:13;;;;;;;7.15;1.70;;;18.10;99.90;;;;;;5070006;28;20040;-77
2022/09/11 02:34:41;;;;;;;4.72;1.60;;;18.10;99.90;;;;;;5070078;28;20054;-79
2022/09/11 02:37:19;;;;;;;4.05;1.70;;;18.10;99.90;;;;;;5070044;28;20017;-78
2022/09/11 02:40:06;;;;;;;6.90;1.80;;;18.10;99.90;;;;;;5064015;28;20025;-80
2022/09/11 02:43:12;;;;;;;7.53;2.35;;;18.10;99.90;;;;;;5069510;28;20024;-77
2022/09/11 02:45:53;;;;;;;5.72;1.80;;;18.10;99.90;;;;;;5066014;28;20032;-77
2022/09/11 02:48:36;;;;;;;3.67;1.60;;;18.00;99.90;;;;;;5070130;28;20481;-77
2022/09/11 02:51:14;;;;;;;3.67;1.60;;;18.00;99.90;;;;;;5070022;28;20489;-78
2022/09/11 02:53:49;;;;;;;5.82;1.42;;;18.10;99.90;;;;;;5063610;28;20504;-77
2022/09/11 02:56:42;;;;;;;7.00;1.95;;;18.00;99.90;;;;;;5065195;28;20017;-77
2022/09/11 02:59:16;;;;;;;7.57;1.73;;;18.10;99.90;;;;;;5069919;28;20489;-77
2022/09/11 03:02:00;;;;;;;3.55;1.08;;;18.10;99.90;;;;;;5069812;28;20146;-84
2022/09/11 03:04:28;;;;;;;4.43;1.40;;;18.10;99.90;;;;;;5064303;28;20031;-77
2022/09/11 03:06:55;;;;;;;9.18;1.95;;;18.10;99.90;;;;;;5069718;28;20028;-77
2022/09/11 03:09:21;;;;;;;9.65;1.55;;;18.10;99.90;;;;;;5069899;28;20485;-77
2022/09/11 03:11:47;;;;;;;3.60;1.30;;;18.10;99.90;;;;;;5069182;28;20024;-78
2022/09/11 03:14:13;;;;;;;4.20;1.35;;;18.10;99.90;;;;;;5070032;28;20036;-78
2022/09/11 03:16:39;;;;;;;2.75;1.10;;;18.10;99.90;;;;;;5065247;28;20099;-77
2022/09/11 03:19:06;;;;;;;4.30;1.80;;;18.10;99.90;;;;;;5069438;28;20056;-77
2022/09/11 03:21:32;;;;;;;5.90;1.30;;;18.10;99.90;;;;;;5069438;28;20385;-77
2022/09/11 03:23:57;;;;;;;3.67;1.23;;;18.10;99.90;;;;;;5069429;28;20133;-77
2022/09/11 03:26:24;;;;;;;6.07;1.80;;;18.10;99.90;;;;;;5069317;28;20504;-77
2022/09/11 03:28:51;;;;;;;4.65;1.30;;;18.10;99.90;;;;;;5069478;28;20021;-77
2022/09/11 03:31:16;;;;;;;3.58;1.38;;;18.00;99.90;;;;;;5071382;28;20405;-77
2022/09/11 03:33:42;;;;;;;5.40;1.40;;;18.10;99.90;;;;;;5071798;28;20036;-77
2022/09/11 03:36:08;;;;;;;2.60;1.20;;;18.10;99.90;;;;;;5073148;28;20032;-78
2022/09/11 03:38:34;;;;;;;4.65;1.52;;;18.10;99.90;;;;;;5073348;28;20024;-77
2022/09/11 03:41:02;;;;;;;3.88;1.45;;;18.10;99.90;;;;;;5070600;28;20069;-78
2022/09/11 03:43:28;;;;;;;2.83;1.40;;;18.00;99.90;;;;;;5073117;28;20021;-80
2022/09/11 03:45:53;;;;;;;8.52;1.33;;;18.00;99.90;;;;;;5071761;28;20042;-80
2022/09/11 03:48:19;;;;;;;7.47;1.77;;;18.10;99.90;;;;;;5073213;28;20095;-77
2022/09/11 03:50:46;;;;;;;4.28;1.25;;;18.10;99.90;;;;;;5072919;28;20039;-84
2022/09/11 03:53:13;;;;;;;6.18;1.92;;;18.00;99.90;;;;;;5073050;28;20036;-78
2022/09/11 03:55:39;;;;;;;6.90;1.70;;;18.10;99.90;;;;;;5072860;28;20020;-77
2022/09/11 03:58:06;;;;;;;7.50;1.38;;;18.00;99.90;;;;;;5073876;28;20056;-77
2022/09/11 04:00:32;;;;;;;3.33;1.48;;;18.00;99.90;;;;;;5081310;28;20066;-77
2022/09/11 04:02:59;;;;;;;3.20;1.13;;;18.00;99.90;;;;;;5084224;28;20176;-77
2022/09/11 04:05:25;;;;;;;6.15;1.45;;;18.00;99.90;;;;;;5084134;28;20021;-77
2022/09/11 04:07:52;;;;;;;6.18;1.75;;;18.00;99.90;;;;;;5084109;28;20031;-77
2022/09/11 04:10:19;;;;;;;4.22;1.60;;;18.00;99.90;;;;;;5084167;28;20024;-77
2022/09/11 04:12:45;;;;;;;6.05;1.70;;;18.00;99.90;;;;;;5083702;28;20055;-77
2022/09/11 04:15:11;;;;;;;5.20;1.45;;;18.00;99.90;;;;;;5082605;28;20307;-77
2022/09/11 04:17:37;;;;;;;3.90;1.60;;;18.00;99.90;;;;;;5083945;28;20066;-77
2022/09/11 04:20:03;;;;;;;5.05;1.83;;;18.00;99.90;;;;;;5083710;28;20021;-77
2022/09/11 04:22:29;;;;;;;6.13;1.58;;;18.00;99.90;;;;;;5083853;28;20020;-77
2022/09/11 04:24:56;;;;;;;3.53;1.27;;;18.00;99.90;;;;;;5083788;28;20023;-77
2022/09/11 04:27:22;;;;;;;4.07;1.45;;;17.90;99.90;;;;;;5082257;28;20192;-77
2022/09/11 04:29:48;;;;;;;6.72;1.45;;;18.00;99.90;;;;;;5082435;28;20017;-77
2022/09/11 04:32:14;;;;;;;3.85;1.73;;;18.00;99.90;;;;;;5081491;28;20178;-77
2022/09/11 04:34:40;;;;;;;7.40;1.40;;;17.90;99.90;;;;;;5083659;28;20039;-77
2022/09/11 04:37:05;;;;;;;5.72;1.30;;;17.90;99.90;;;;;;5083415;28;20202;-77
2022/09/11 04:39:31;;;;;;;5.93;1.65;;;17.90;99.90;;;;;;5083469;28;20088;-77
2022/09/11 04:41:57;;;;;;;5.30;1.38;;;17.90;99.90;;;;;;5082712;28;20339;-77
2022/09/11 04:44:25;;;;;;;4.78;1.25;;;17.80;99.90;;;;;;5083477;28;20051;-77
2022/09/11 04:46:50;;;;;;;4.65;1.63;;;17.80;99.90;;;;;;5083342;28;20031;-77
2022/09/11 04:49:17;;;;;;;4.40;1.58;;;17.80;99.90;;;;;;5081706;28;20028;-77
2022/09/11 04:51:44;;;;;;;3.65;1.38;;;17.80;99.90;;;;;;5082938;28;20047;-77
2022/09/11 04:54:14;;;;;;;2.13;1.40;;;17.80;99.90;;;;;;5082339;28;20051;-77
2022/09/11 04:56:40;;;;;;;4.43;1.30;;;17.80;99.90;;;;;;5082701;28;20023;-77
2022/09/11 04:59:21;;;;;;;3.22;1.40;;;17.80;99.90;;;;;;5081803;28;20016;-77
2022/09/11 05:01:47;;;;;;;4.55;1.38;;;17.80;99.90;;;;;;5082754;28;20105;-77
2022/09/11 05:04:14;;;;;;;4.43;1.25;;;17.80;99.90;;;;;;5082890;28;20031;-77
2022/09/11 05:06:41;;;;;;;5.63;1.58;;;17.80;99.90;;;;;;5082999;28;20017;-78
2022/09/11 05:09:09;;;;;;;4.85;1.85;;;17.70;99.90;;;;;;5083015;28;20186;-77
2022/09/11 05:11:37;;;;;;;3.20;1.25;;;17.70;99.90;;;;;;5081658;28;20021;-77
2022/09/11 05:14:02;;;;;;;3.90;1.50;;;17.70;99.90;;;;;;5082801;28;20024;-77
2022/09/11 05:16:29;;;;;;;5.07;1.20;;;17.80;99.90;;;;;;5082635;28;20221;-77
2022/09/11 05:18:55;;;;;;;3.67;1.05;;;17.70;99.90;;;;;;5082737;28;20088;-77
2022/09/11 05:21:23;;;;;;;3.22;1.35;;;17.70;99.90;;;;;;5082991;28;20084;-77
2022/09/11 05:23:51;;;;;;;3.45;1.40;;;17.70;99.90;;;;;;5081824;28;20044;-77
2022/09/11 05:26:22;;;;;;;3.90;0.98;;;17.70;99.90;;;;;;5081593;28;20135;-77
2022/09/11 05:28:56;;;;;;;5.00;1.20;;;17.80;99.90;;;;;;5082573;28;20323;-77
2022/09/11 05:31:22;;;;;;;;;;;17.70;99.90;;;;;;5082757;28;20044;-77
2022/09/11 05:33:48;;;;;;;3.33;1.10;;;17.70;99.90;;;;;;5082218;28;19956;-77
2022/09/11 05:36:14;;;;;;;4.85;1.20;;;17.70;99.90;;;;;;5082720;28;20036;-77
2022/09/11 05:38:41;;;;;;;3.63;1.48;;;17.70;99.90;;;;;;5082347;28;20032;-77
2022/09/11 05:41:10;;;;;;;6.35;1.17;;;17.60;99.90;;;;;;5082003;28;20311;-77
2022/09/11 05:43:36;;;;;;;1.70;0.80;;;17.60;99.90;;;;;;5082464;28;20031;-77
2022/09/11 05:46:03;;;;;;;4.43;1.10;;;17.60;99.90;;;;;;5082123;28;20026;-77
2022/09/11 05:48:32;;;;;;;3.97;1.05;;;17.60;99.90;;;;;;5082506;28;20203;-77
2022/09/11 05:51:06;;;;;;;2.08;1.05;;;17.60;99.90;;;;;;5081487;28;20043;-77
2022/09/11 05:53:32;;;;;;;3.25;0.95;;;17.70;99.90;;;;;;5080754;28;20162;-77
2022/09/11 05:56:08;;;;;;;4.22;1.10;;;17.70;99.90;;;;;;5081789;28;20020;-77
2022/09/11 05:58:34;;;;;;;3.80;1.00;;;17.70;99.90;;;;;;5075968;28;20012;-77
2022/09/11 06:01:08;;;;;;;3.30;0.98;;;17.80;99.90;;;;;;5082000;28;20036;-77
2022/09/11 06:03:35;;;;;;;4.07;1.10;;;17.80;99.90;;;;;;5081905;28;20298;-77
2022/09/11 06:06:02;;;;;;;2.22;1.20;;;17.80;99.90;;;;;;5081344;28;20028;-77
2022/09/11 06:08:29;;;;;;;3.15;1.30;;;17.80;99.90;;;;;;5081959;28;20028;-77
2022/09/11 06:10:57;;;;;;;4.80;1.13;;;17.80;99.90;;;;;;5081081;28;20087;-77
2022/09/11 06:13:24;;;;;;;2.67;1.10;;;17.80;99.90;;;;;;5081481;28;20032;-77
2022/09/11 06:15:50;;;;;;;4.15;0.98;;;17.80;99.90;;;;;;5081780;28;20055;-77
2022/09/11 06:18:16;;;;;;;4.75;1.10;;;17.90;99.90;;;;;;5081653;28;20021;-77
2022/09/11 06:20:42;;;;;;;3.42;1.10;;;17.90;99.90;;;;;;5081694;28;20028;-78
2022/09/11 06:23:11;;;;;;;2.90;0.90;;;17.90;99.90;;;;;;5081531;28;20029;-77
2022/09/11 06:25:37;;;;;;;3.55;0.80;;;18.00;99.90;;;;;;5081084;28;20013;-77
2022/09/11 06:28:03;;;;;;;2.60;0.88;;;18.00;99.90;;;;;;5081564;28;20020;-77
2022/09/11 06:30:28;;;;;;;3.15;1.23;;;18.00;99.90;;;;;;5080902;28;20080;-77
2022/09/11 06:32:55;;;;;;;5.93;0.98;;;18.10;99.90;;;;;;5081387;28;20044;-77
2022/09/11 06:35:22;;;;;;;4.05;0.93;;;18.10;99.90;;;;;;5081342;28;20305;-77
2022/09/11 06:37:48;;;;;;;1.85;0.80;;;18.20;99.90;;;;;;5081567;28;20016;-77
2022/09/11 06:40:14;;;;;;;2.80;0.90;;;18.20;99.90;;;;;;5081529;28;20304;-77
2022/09/11 06:42:39;;;;;;;1.35;0.80;;;18.20;99.90;;;;;;5080988;28;20096;-77
2022/09/11 06:45:07;;;;;;;5.13;0.90;;;18.30;99.90;;;;;;5081536;28;20031;-77
2022/09/11 06:47:33;;;;;;;1.80;0.70;;;18.30;99.90;;;;;;5081141;28;20017;-77
2022/09/11 06:49:58;;;;;;;4.47;0.88;;;18.30;99.90;;;;;;5081339;28;20074;-78
2022/09/11 06:52:24;;;;;;;2.92;1.67;;;18.40;99.90;;;;;;5081281;28;20040;-80
2022/09/11 06:54:50;;;;;;;2.28;0.88;;;18.50;99.90;;;;;;5068970;28;20028;-79
2022/09/11 06:57:16;;;;;;;2.88;0.90;;;18.50;99.90;;;;;;5069594;28;20504;-79
2022/09/11 06:59:42;;;;;;;2.50;1.05;;;18.60;99.90;;;;;;5069344;28;20791;-79
2022/09/11 07:02:08;;;;;;;6.10;1.17;;;18.60;99.90;;;;;;5069110;28;20029;-79
2022/09/11 07:04:34;;;;;;;4.93;1.13;;;18.60;99.90;;;;;;5070401;28;20032;-79
2022/09/11 07:07:00;;;;;;;4.95;1.10;;;18.70;99.90;;;;;;5073372;28;20154;-79
2022/09/11 07:09:25;;;;;;;1.92;0.80;;;18.80;99.90;;;;;;5073317;28;20027;-79
2022/09/11 07:11:52;;;;;;;7.40;1.63;;;18.80;99.90;;;;;;5072848;28;20052;-80
2022/09/11 07:14:20;;;;;;;5.68;1.20;;;18.90;99.90;;;;;;5073612;28;20032;-79
2022/09/11 07:16:53;;;;;;;4.30;1.30;;;18.90;99.90;;;;;;5084630;28;20009;-79
2022/09/11 07:19:20;;;;;;;5.18;1.40;;;19.00;99.90;;;;;;5082975;28;20037;-79
2022/09/11 07:21:46;;;;;;;2.83;1.00;;;19.10;99.90;;;;;;5084715;28;20016;-79
2022/09/11 07:24:12;;;;;;;3.15;1.10;;;19.10;99.90;;;;;;5084533;28;20066;-79
2022/09/11 07:26:37;;;;;;;3.25;1.10;;;19.20;99.90;;;;;;5083639;28;20054;-79
2022/09/11 07:29:03;;;;;;;3.53;1.02;;;19.30;99.90;;;;;;5075492;28;20473;-79
2022/09/11 07:31:31;;;;;;;2.85;1.15;;;19.40;99.90;;;;;;5079946;28;20044;-79
2022/09/11 07:33:58;;;;;;;4.45;0.93;;;19.50;99.90;;;;;;5084454;28;20025;-79
2022/09/11 07:36:26;;;;;;;3.42;0.80;;;19.50;99.90;;;;;;5084313;28;20247;-79
2022/09/11 07:38:53;;;;;;;2.97;0.80;;;19.60;99.90;;;;;;5080208;28;20031;-79
2022/09/11 07:41:21;;;;;;;5.15;1.00;;;19.60;99.90;;;;;;5078270;28;20074;-81
2022/09/11 07:43:52;;;;;;;2.67;0.70;;;19.80;99.90;;;;;;5077528;28;20114;-81
2022/09/11 07:46:17;;;;;;;5.28;0.80;;;19.80;99.90;;;;;;5073930;28;20032;-81
2022/09/11 07:48:43;;;;;;;4.28;0.90;;;19.90;99.90;;;;;;5075562;28;20028;-80
2022/09/11 07:51:11;;;;;;;3.65;0.70;;;20.00;99.90;;;;;;5077987;28;20012;-80
2022/09/11 07:53:39;;;;;;;2.50;0.70;;;20.10;99.90;;;;;;5073380;28;20032;-80
2022/09/11 07:56:08;;;;;;;3.47;0.68;;;20.10;99.90;;;;;;5076585;28;20398;-81
2022/09/11 07:58:37;;;;;;;4.00;0.85;;;20.20;99.90;;;;;;5072850;28;20032;-81
2022/09/11 08:01:04;;;;;;;4.35;0.90;;;20.30;99.90;;;;;;5073317;28;20035;-80
2022/09/11 08:03:33;;;;;;;3.00;0.60;;;20.40;99.90;;;;;;5079116;28;20048;-81
2022/09/11 08:06:05;;;;;;;4.32;0.75;;;20.40;99.90;;;;;;5080217;28;20435;-81
2022/09/11 08:08:31;;;;;;;4.10;1.08;;;20.50;99.90;;;;;;5069188;28;20114;-80
2022/09/11 08:11:02;;;;;;;3.60;0.60;;;20.60;99.90;;;;;;5072880;28;20037;-81
2022/09/11 08:13:28;;;;;;;4.28;1.02;;;20.70;99.90;;;;;;5073608;28;20037;-87
2022/09/11 08:15:54;;;;;;;2.17;0.73;;;20.80;99.90;;;;;;5070249;28;20050;-82
2022/09/11 08:18:19;;;;;;;2.28;0.50;;;20.90;99.90;;;;;;5072034;28;20062;-82
2022/09/11 08:20:45;;;;;;;3.80;0.77;;;21.00;99.90;;;;;;5071798;28;20109;-82
2022/09/11 08:23:11;;;;;;;3.45;0.75;;;21.10;99.90;;;;;;5070782;28;20032;-82
2022/09/11 08:25:38;;;;;;;3.20;0.65;;;21.10;99.90;;;;;;5071726;28;20096;-81
2022/09/11 08:28:04;;;;;;;2.28;0.68;;;21.20;99.90;;;;;;5064815;28;20485;-82
2022/09/11 08:30:30;;;;;;;2.13;0.50;;;21.30;99.90;;;;;;5068062;28;20495;-82
2022/09/11 08:32:56;;;;;;;4.47;0.85;;;21.50;99.90;;;;;;5068591;28;20041;-82
2022/09/11 08:35:22;;;;;;;2.65;0.80;;;21.50;99.90;;;;;;5070009;28;20032;-82
2022/09/11 08:37:47;;;;;;;5.18;0.68;;;21.60;99.90;;;;;;5069954;28;20397;-82
2022/09/11 08:40:13;;;;;;;2.58;0.50;;;21.70;99.90;;;;;;5069762;28;20031;-82
2022/09/11 08:42:42;;;;;;;2.47;0.65;;;21.80;99.90;;;;;;5070434;28;20052;-82
2022/09/11 08:45:14;;;;;;;3.00;0.60;;;21.90;99.90;;;;;;5071957;28;20511;-82
2022/09/11 08:47:44;;;;;;;3.92;0.90;;;22.00;99.90;;;;;;5071793;28;20035;-82
2022/09/11 08:50:16;;;;;;;3.08;0.85;;;22.00;99.90;;;;;;5071845;28;20476;-82
2022/09/11 08:52:43;;;;;;;5.88;1.10;;;22.10;99.90;;;;;;5069937;28;20025;-83
2022/09/11 08:55:13;;;;;;;2.45;0.70;;;22.20;99.90;;;;;;5065767;28;20051;-82
2022/09/11 08:57:56;;;;;;;3.08;0.90;;;22.30;99.90;;;;;;5066464;28;20028;-81
2022/09/11 09:00:28;;;;;;;2.92;0.98;;;22.40;99.90;;;;;;5071564;28;20066;-81
2022/09/11 09:03:29;;;;;;;3.38;1.00;;;22.50;99.90;;;;;;5078339;28;20325;-81
2022/09/11 09:06:07;;;;;;;4.13;0.82;;;22.60;99.90;;;;;;5069969;28;20276;-81
2022/09/11 09:08:53;;;;;;;1.70;0.43;;;22.70;99.90;;;;;;5077834;28;20054;-81
2022/09/11 09:11:32;;;;;;;3.83;0.60;;;22.80;99.90;;;;;;5073126;28;20025;-81
2022/09/11 09:14:23;;;;;;;5.05;0.93;;;22.90;99.90;;;;;;5070594;28;20033;-81
2022/09/11 09:17:10;;;;;;;2.35;0.70;;;23.00;99.90;;;;;;5067888;28;20078;-81
2022/09/11 09:19:36;;;;;;;2.80;0.90;;;23.10;99.90;;;;;;5070958;28;20020;-80
2022/09/11 09:22:24;;;;;;;2.53;0.65;;;23.20;99.90;;;;;;5071174;28;20496;-81
2022/09/11 09:24:59;;;;;;;3.92;0.60;;;23.30;99.90;;;;;;5065059;28;20037;-81
2022/09/11 09:27:28;;;;;;;;;;;23.40;99.90;;;;;;5066140;28;20496;-81
2022/09/11 09:29:57;;;;;;;2.45;0.70;;;23.50;99.90;;;;;;5070837;28;19950;-81
2022/09/11 09:32:34;;;;;;;3.80;0.70;;;23.50;99.90;;;;;;5068883;28;20044;-81
2022/09/11 09:35:04;;;;;;;2.00;0.60;;;23.60;99.90;;;;;;5070640;28;20050;-80
2022/09/11 09:37:29;;;;;;;4.65;0.88;;;23.60;99.90;;;;;;5070721;28;20159;-81
2022/09/11 09:39:55;;;;;;;2.10;0.50;;;23.70;99.90;;;;;;5070721;28;20463;-80
2022/09/11 09:42:46;;;;;;;1.42;0.40;;;23.80;99.90;;;;;;5070520;28;20013;-80
2022/09/11 09:45:36;;;;;;;2.13;0.88;;;23.80;99.90;;;;;;5070664;28;20055;-80
2022/09/11 09:48:03;;;;;;;3.08;0.60;;;23.90;99.90;;;;;;5066334;28;20020;-80
2022/09/11 09:50:34;;;;;;;1.90;0.52;;;24.00;99.90;;;;;;5070609;28;20603;-80
2022/09/11 09:53:42;;;;;;;2.50;0.50;;;24.00;99.90;;;;;;5070287;28;20075;-80
2022/09/11 09:56:12;;;;;;;2.25;0.73;;;24.10;99.90;;;;;;5070044;28;20069;-80
2022/09/11 09:58:47;;;;;;;1.73;0.40;;;24.20;99.90;;;;;;5069213;28;20028;-80
2022/09/11 10:01:38;;;;;;;1.15;0.50;;;24.30;99.90;;;;;;5070535;28;20032;-80
2022/09/11 10:04:16;;;;;;;2.13;0.52;;;24.40;99.90;;;;;;5070525;28;20019;-80
2022/09/11 10:06:44;;;;;;;2.13;0.60;;;24.40;99.90;;;;;;5068177;28;20025;-80
2022/09/11 10:09:22;;;;;;;3.05;0.47;;;24.40;99.90;;;;;;5064063;28;20030;-81
2022/09/11 10:12:01;;;;;;;8.48;1.70;;;24.50;99.90;;;;;;5068131;28;20035;-81
2022/09/11 10:14:33;;;;;;;47.50;10.20;;;24.60;99.90;;;;;;5070453;28;20518;-80
2022/09/11 10:17:00;;;;;;;38.28;9.27;;;24.70;99.90;;;;;;5070255;28;20473;-79
2022/09/11 10:19:41;;;;;;;15.63;3.22;;;24.70;99.90;;;;;;5070418;28;20028;-80
2022/09/11 10:22:27;;;;;;;18.58;4.25;;;24.80;99.90;;;;;;5070246;28;20031;-80
2022/09/11 10:25:12;;;;;;;8.38;2.08;;;24.80;99.90;;;;;;5064841;28;20097;-80
2022/09/11 10:27:58;;;;;;;8.43;2.08;;;24.90;99.90;;;;;;5067774;28;20033;-79
2022/09/11 10:30:38;;;;;;;6.95;1.20;;;25.00;99.90;;;;;;5069967;28;20400;-80
2022/09/11 10:33:25;;;;;;;2.70;0.93;;;25.10;99.90;;;;;;5064141;28;20036;-80
2022/09/11 10:35:54;;;;;;;1.85;0.70;;;25.20;99.50;;;;;;5069719;28;20031;-79
2022/09/11 10:38:34;;;;;;;3.83;1.00;;;25.30;99.40;;;;;;5073399;28;20170;-80
2022/09/11 10:41:09;;;;;;;3.88;1.63;;;25.40;99.40;;;;;;5068780;28;20009;-80
2022/09/11 10:43:42;;;;;;;5.43;3.60;;;25.40;99.50;;;;;;5070287;28;20108;-80
2022/09/11 10:46:17;;;;;;;2.60;0.98;;;25.60;99.10;;;;;;5062172;28;20079;-80
2022/09/11 10:48:50;;;;;;;2.97;0.70;;;25.60;99.10;;;;;;5064441;28;20104;-80
2022/09/11 10:51:16;;;;;;;4.60;1.00;;;25.70;98.90;;;;;;5065247;28;20052;-79
2022/09/11 10:54:06;;;;;;;4.45;2.22;;;25.80;99.00;;;;;;5069808;28;20079;-80
2022/09/11 10:56:43;;;;;;;3.80;0.93;;;25.90;98.90;;;;;;5069609;28;20016;-80
2022/09/11 10:59:16;;;;;;;1.30;0.43;;;26.00;99.00;;;;;;5069927;28;20029;-80
2022/09/11 11:01:42;;;;;;;2.25;0.70;;;26.10;98.00;;;;;;5069867;28;20086;-80
2022/09/11 11:04:11;;;;;;;1.70;0.45;;;26.20;98.90;;;;;;5069913;28;20075;-80
2022/09/11 11:06:39;;;;;;;1.27;0.40;;;26.30;98.10;;;;;;5069540;28;20069;-80
2022/09/11 11:09:11;;;;;;;1.38;0.25;;;26.40;98.10;;;;;;5069753;28;20064;-80
2022/09/11 11:12:06;;;;;;;2.13;0.50;;;26.50;97.70;;;;;;5065526;28;20086;-80
2022/09/11 11:14:55;;;;;;;5.43;1.05;;;26.60;97.60;;;;;;5067173;28;20570;-79
2022/09/11 11:17:47;;;;;;;5.57;0.75;;;26.60;97.60;;;;;;5055615;28;20064;-80
2022/09/11 11:20:40;;;;;;;2.78;1.35;;;26.60;97.40;;;;;;5066457;28;20024;-80
2022/09/11 11:23:22;;;;;;;2.80;0.98;;;26.80;97.90;;;;;;5063076;28;20025;-79
2022/09/11 11:26:19;;;;;;;2.58;0.90;;;26.80;97.70;;;;;;5064443;28;20195;-80
2022/09/11 11:29:13;;;;;;;3.80;1.27;;;27.00;97.50;;;;;;5052188;28;20127;-80
2022/09/11 11:32:07;;;;;;;5.00;1.10;;;27.00;97.20;;;;;;5065761;28;20534;-81
2022/09/11 11:34:33;;;;;;;1.58;0.50;;;27.10;97.00;;;;;;5069420;28;20329;-80
2022/09/11 11:37:14;;;;;;;5.97;0.75;;;27.20;97.10;;;;;;5069289;28;20021;-80
2022/09/11 11:40:03;;;;;;;1.30;0.60;;;27.30;96.50;;;;;;5063976;28;20025;-80
2022/09/11 11:42:34;;;;;;;2.08;0.40;;;27.40;96.40;;;;;;5069033;28;20020;-80
2022/09/11 11:45:24;;;;;;;1.05;0.30;;;27.40;96.10;;;;;;5069363;28;20028;-80
2022/09/11 11:47:52;;;;;;;1.92;0.65;;;27.50;96.00;;;;;;5069333;28;20024;-79
2022/09/11 11:50:24;;;;;;;1.27;0.40;;;27.60;95.80;;;;;;5069435;28;20017;-80
2022/09/11 11:53:01;;;;;;;2.75;0.60;;;27.60;95.90;;;;;;5071958;28;20428;-80
2022/09/11 11:55:50;;;;;;;1.63;0.52;;;27.70;96.10;;;;;;5072513;28;20583;-79
2022/09/11 11:58:29;;;;;;;3.00;0.63;;;27.80;95.90;;;;;;5072658;28;20099;-80
2022/09/11 12:00:59;;;;;;;1.75;0.57;;;27.80;96.10;;;;;;5066280;28;20033;-80
2022/09/11 12:03:35;;;;;;;0.93;0.30;;;27.90;95.90;;;;;;5071446;28;20477;-80
2022/09/11 12:06:01;;;;;;;1.98;0.32;;;28.00;95.80;;;;;;5067539;28;20021;-80
2022/09/11 12:08:27;;;;;;;1.17;0.40;;;28.20;95.40;;;;;;5072723;28;20031;-80
2022/09/11 12:11:05;;;;;;;0.90;0.30;;;28.30;95.60;;;;;;5072243;28;20016;-79
2022/09/11 12:13:34;;;;;;;1.45;0.30;;;28.40;95.40;;;;;;5072563;28;20031;-80
2022/09/11 12:16:20;;;;;;;3.28;0.30;;;28.50;95.10;;;;;;5072811;28;20070;-79
2022/09/11 12:19:04;;;;;;;1.77;0.60;;;28.60;94.80;;;;;;5072894;28;20023;-82
2022/09/11 12:21:30;;;;;;;1.08;0.30;;;28.60;94.70;;;;;;5068986;28;20020;-84
2022/09/11 12:23:55;;;;;;;1.25;0.40;;;28.80;94.40;;;;;;5073293;28;20096;-84
2022/09/11 12:26:26;;;;;;;1.73;0.38;;;28.90;94.00;;;;;;5070576;28;20803;-84
2022/09/11 12:29:19;;;;;;;2.97;0.47;;;28.90;94.10;;;;;;5070844;28;20021;-84
2022/09/11 12:31:50;;;;;;;1.15;0.45;;;28.90;94.50;;;;;;5069158;28;20045;-83
2022/09/11 12:34:24;;;;;;;1.92;0.47;;;29.10;94.40;;;;;;5069794;28;20110;-84
2022/09/11 12:37:01;;;;;;;1.65;0.30;;;29.20;94.10;;;;;;5071879;28;20052;-84
2022/09/11 12:39:30;;;;;;;0.77;0.25;;;29.40;93.60;;;;;;5071417;28;20040;-84
2022/09/11 12:42:24;;;;;;;1.33;0.30;;;29.40;93.90;;;;;;5071988;28;20052;-84
2022/09/11 12:44:49;;;;;;;1.15;0.38;;;29.50;93.40;;;;;;5070819;28;20016;-77
2022/09/11 12:47:26;;;;;;;3.10;0.40;;;29.70;93.90;;;;;;5073754;28;20073;-78
2022/09/11 12:50:16;;;;;;;2.95;0.50;;;29.70;93.90;;;;;;5073639;28;20074;-78
2022/09/11 12:52:42;;;;;;;1.25;0.20;;;29.60;93.90;;;;;;5073061;28;20066;-78
2022/09/11 12:55:42;;;;;;;2.08;0.20;;;29.50;93.70;;;;;;5073035;28;20468;-77
2022/09/11 12:58:17;;;;;;;1.80;0.40;;;29.60;93.40;;;;;;5071536;28;20048;-78
2022/09/11 13:00:46;;;;;;;3.63;0.60;;;29.60;93.40;;;;;;5071981;28;20496;-77
2022/09/11 13:03:19;;;;;;;2.25;0.40;;;29.70;93.60;;;;;;5070748;28;20052;-78
2022/09/11 13:06:03;;;;;;;0.90;0.25;;;29.80;93.60;;;;;;5072494;28;20082;-78
2022/09/11 13:08:35;;;;;;;0.95;0.30;;;29.90;93.30;;;;;;5070330;28;20140;-77
2022/09/11 13:11:34;;;;;;;5.25;0.50;;;30.00;92.80;;;;;;5072078;28;20043;-78
2022/09/11 13:14:01;;;;;;;1.73;0.35;;;30.10;93.20;;;;;;5071077;28;20033;-78